Time;durP1;ratioP1;P1;durP2;ratioP2;P2;SDS_P1;SDS_P2;PMS_P1;PMS_P2;Temp;Humidity;BMP_temperature;BMP_pressure;BME280_temperature;BME280_humidity;BME280_pressure;Samples;Min_cycle;Max_cycle;Signal;HPM_P1;HPM_P2
2022/04/05 00:01:53;;;;;;;8.30;4.30;;;;;;;3.70;89.42;98224.75;4974430;28;20077;-90
2022/04/05 00:04:19;;;;;;;6.55;4.57;;;;;;;3.71;89.77;98226.44;4974669;28;20134;-89
2022/04/05 00:06:46;;;;;;;5.55;3.83;;;;;;;3.72;89.96;98228.13;4973593;28;20063;-89
2022/04/05 00:09:13;;;;;;;8.80;4.80;;;;;;;3.75;89.49;98228.06;4974770;28;20054;-89
2022/04/05 00:11:40;;;;;;;6.90;4.32;;;;;;;3.79;89.53;98227.13;4974155;28;20539;-87
2022/04/05 00:14:09;;;;;;;5.90;4.00;;;;;;;3.77;90.25;98212.66;4974748;28;20095;-90
2022/04/05 00:16:35;;;;;;;10.00;4.10;;;;;;;3.72;89.87;98217.88;4974264;28;20051;-88
2022/04/05 00:19:02;;;;;;;6.93;4.57;;;;;;;3.80;90.03;98215.16;4973989;28;20058;-88
2022/04/05 00:21:28;;;;;;;7.72;5.00;;;;;;;3.82;90.07;98222.81;4973954;28;20494;-87
2022/04/05 00:23:55;;;;;;;8.57;4.28;;;;;;;3.85;89.91;98212.50;4973874;28;20516;-89
2022/04/05 00:26:21;;;;;;;7.13;4.22;;;;;;;3.87;89.93;98215.88;4973768;28;20054;-88
2022/04/05 00:28:49;;;;;;;7.32;4.20;;;;;;;3.91;89.32;98214.94;4974207;28;20054;-89
2022/04/05 00:31:16;;;;;;;5.82;3.80;;;;;;;3.92;89.28;98208.91;4974038;28;20055;-87
2022/04/05 00:33:42;;;;;;;8.13;4.15;;;;;;;3.96;89.34;98211.38;4974225;28;20074;-87
2022/04/05 00:36:09;;;;;;;11.13;4.00;;;;;;;3.97;89.46;98213.06;4974185;28;20058;-88
2022/04/05 00:38:35;;;;;;;7.88;3.90;;;;;;;4.01;89.08;98213.84;4974524;28;20043;-88
2022/04/05 00:41:02;;;;;;;6.13;3.63;;;;;;;4.03;88.80;98222.34;4974174;28;20050;-88
2022/04/05 00:43:28;;;;;;;8.95;4.03;;;;;;;4.07;88.72;98218.84;4974095;28;20065;-88
2022/04/05 00:45:56;;;;;;;8.73;3.65;;;;;;;4.07;88.00;98216.28;4973991;28;20065;-88
2022/04/05 00:48:30;;;;;;;9.43;3.63;;;;;;;4.16;87.68;98226.31;4974237;28;20055;-88
2022/04/05 00:50:57;;;;;;;8.32;3.30;;;;;;;4.17;87.49;98224.63;4974024;28;20078;-88
2022/04/05 00:53:25;;;;;;;6.90;3.60;;;;;;;4.21;87.51;98218.53;4973911;28;20068;-88
2022/04/05 00:55:54;;;;;;;10.15;3.90;;;;;;;4.21;87.51;98227.09;4973891;28;20047;-88
2022/04/05 00:58:24;;;;;;;13.80;3.80;;;;;;;4.26;87.43;98222.69;4973785;28;20046;-89
2022/04/05 01:00:52;;;;;;;7.72;3.35;;;;;;;4.29;87.35;98230.31;4974114;28;20442;-89
2022/04/05 01:03:22;;;;;;;11.80;3.55;;;;;;;4.31;86.91;98220.88;4973974;28;20126;-88
2022/04/05 01:05:51;;;;;;;10.02;2.75;;;;;;;4.33;86.66;98221.66;4973945;28;20473;-88
2022/04/05 01:08:20;;;;;;;24.95;3.40;;;;;;;4.34;86.47;98228.50;4973535;28;20445;-89
2022/04/05 01:10:48;;;;;;;15.32;2.95;;;;;;;4.37;85.87;98230.97;4974063;28;20058;-89
2022/04/05 01:13:15;;;;;;;11.75;4.18;;;;;;;4.37;85.58;98233.53;4973747;28;20499;-89
2022/04/05 01:15:41;;;;;;;7.13;2.60;;;;;;;4.39;85.51;98242.03;4973664;28;20138;-88
2022/04/05 01:18:08;;;;;;;9.75;2.47;;;;;;;4.37;84.93;98242.97;4976101;28;20065;-87
2022/04/05 01:20:36;;;;;;;10.75;2.30;;;;;;;4.37;84.48;98240.41;4977562;28;20051;-90
2022/04/05 01:23:05;;;;;;;7.28;2.13;;;;;;;4.38;84.50;98260.03;4976694;28;20091;-88
2022/04/05 01:25:33;;;;;;;12.70;2.40;;;;;;;4.35;84.35;98253.25;4977150;28;20384;-88
2022/04/05 01:27:59;;;;;;;9.05;2.20;;;;;;;4.33;84.57;98246.47;4977255;28;20392;-87
2022/04/05 01:30:26;;;;;;;13.00;2.15;;;;;;;4.23;84.67;98253.53;4977137;28;20385;-87
2022/04/05 01:32:57;;;;;;;4.10;1.70;;;;;;;4.10;85.36;98249.53;4977170;28;20047;-88
2022/04/05 01:35:23;;;;;;;6.80;1.98;;;;;;;4.15;85.49;98268.22;4958027;29;20047;-86
2022/04/05 01:37:50;;;;;;;10.52;2.08;;;;;;;4.13;85.27;98264.84;4957430;29;20698;-88
2022/04/05 01:40:16;;;;;;;9.50;2.20;;;;;;;4.11;86.03;98270.00;4958113;29;20053;-88
2022/04/05 01:42:44;;;;;;;7.13;1.98;;;;;;;4.17;85.87;98276.75;4958248;29;20066;-88
2022/04/05 01:45:11;;;;;;;11.70;2.50;;;;;;;4.18;86.48;98273.31;4969275;28;20051;-88
2022/04/05 01:47:38;;;;;;;7.65;2.08;;;;;;;4.18;86.76;98268.19;4977017;28;20503;-89
2022/04/05 01:50:06;;;;;;;15.00;2.35;;;;;;;4.20;86.48;98274.13;4977073;28;20058;-88
2022/04/05 01:52:33;;;;;;;11.70;2.25;;;;;;;4.19;86.01;98280.13;4990325;28;20050;-88
2022/04/05 01:54:59;;;;;;;9.35;2.45;;;;;;;4.12;86.62;98273.41;4996585;28;20050;-89
2022/04/05 01:57:26;;;;;;;9.90;1.95;;;;;;;4.12;86.70;98283.66;4996376;28;20058;-88
2022/04/05 01:59:54;;;;;;;8.90;1.63;;;;;;;4.10;86.30;98283.69;4996414;28;20477;-89
2022/04/05 02:02:20;;;;;;;6.47;1.88;;;;;;;4.10;86.28;98282.84;4987121;28;20058;-89
2022/04/05 02:04:47;;;;;;;10.00;1.75;;;;;;;4.10;85.74;98285.41;4976949;28;20058;-89
2022/04/05 02:07:15;;;;;;;6.05;1.80;;;;;;;4.03;85.84;98273.63;4976961;28;20046;-88
2022/04/05 02:09:42;;;;;;;7.47;1.95;;;;;;;4.02;85.82;98277.91;4977240;28;20054;-89
2022/04/05 02:12:10;;;;;;;12.77;2.25;;;;;;;4.01;85.29;98275.38;4976411;28;20058;-88
2022/04/05 02:14:37;;;;;;;11.77;2.35;;;;;;;3.98;84.78;98278.00;4976640;28;20054;-89
2022/04/05 02:17:06;;;;;;;10.75;2.30;;;;;;;3.91;85.05;98294.38;4976663;28;20057;-88
2022/04/05 02:19:34;;;;;;;11.07;2.40;;;;;;;3.84;84.74;98288.53;4976193;28;20074;-89
2022/04/05 02:22:00;;;;;;;9.57;1.73;;;;;;;3.80;85.07;98289.47;4977032;28;20105;-88
2022/04/05 02:24:27;;;;;;;5.65;1.65;;;;;;;3.70;84.96;98291.38;4975626;28;20051;-88
2022/04/05 02:26:53;;;;;;;5.88;1.00;;;;;;;3.67;84.72;98285.47;4976131;28;20061;-88
2022/04/05 02:29:20;;;;;;;8.80;1.70;;;;;;;3.61;84.83;98286.41;4975835;28;20043;-89
2022/04/05 02:31:46;;;;;;;5.13;1.55;;;;;;;3.58;84.88;98296.72;4976717;28;20049;-88
2022/04/05 02:34:14;;;;;;;6.85;1.42;;;;;;;3.54;84.95;98287.41;4976113;28;20065;-87
2022/04/05 02:36:41;;;;;;;7.32;1.98;;;;;;;3.50;85.60;98288.34;4976812;28;20055;-87
2022/04/05 02:39:08;;;;;;;7.38;1.50;;;;;;;3.50;85.20;98303.69;4976946;28;20054;-88
2022/04/05 02:41:34;;;;;;;10.95;2.40;;;;;;;3.50;85.63;98288.34;4976651;28;20054;-89
2022/04/05 02:44:01;;;;;;;11.40;1.98;;;;;;;3.44;86.03;98296.13;4976772;28;20047;-88
2022/04/05 02:46:28;;;;;;;15.52;2.35;;;;;;;3.47;85.78;98288.38;4976180;28;20050;-88
2022/04/05 02:48:55;;;;;;;9.70;2.30;;;;;;;3.47;85.48;98298.63;4976292;28;20047;-88
2022/04/05 02:51:24;;;;;;;9.77;2.05;;;;;;;3.48;85.87;98295.19;4975955;28;20085;-88
2022/04/05 02:53:50;;;;;;;7.75;2.03;;;;;;;3.45;85.64;98285.00;4975320;28;20051;-88
2022/04/05 02:56:17;;;;;;;10.25;1.75;;;;;;;3.48;84.66;98295.19;4975827;28;20499;-88
2022/04/05 02:58:47;;;;;;;11.80;2.58;;;;;;;3.50;84.85;98293.47;4976071;28;20043;-88
2022/04/05 03:01:15;;;;;;;11.63;2.15;;;;;;;3.52;84.12;98296.00;4975983;28;20058;-87
2022/04/05 03:03:42;;;;;;;8.27;2.00;;;;;;;3.52;83.23;98301.09;4975532;28;20050;-88
2022/04/05 03:06:09;;;;;;;12.13;2.08;;;;;;;3.55;82.86;98307.03;4975591;28;20046;-89
2022/04/05 03:08:38;;;;;;;7.25;2.13;;;;;;;3.55;81.86;98301.91;4975237;28;20054;-88
2022/04/05 03:11:04;;;;;;;11.52;2.70;;;;;;;3.56;82.76;98307.84;4975424;28;20054;-88
2022/04/05 03:13:31;;;;;;;15.63;3.13;;;;;;;3.57;82.09;98309.56;4975175;28;20050;-88
2022/04/05 03:15:57;;;;;;;10.95;1.83;;;;;;;3.58;81.92;98314.66;4975366;28;20113;-87
2022/04/05 03:18:24;;;;;;;18.90;5.45;;;;;;;3.55;81.67;98301.91;4975162;28;20073;-88
2022/04/05 03:20:51;;;;;;;11.23;2.70;;;;;;;3.56;81.62;98312.97;4975559;28;20066;-88
2022/04/05 03:23:19;;;;;;;14.50;2.67;;;;;;;3.53;82.20;98306.19;4974343;28;20047;-88
2022/04/05 03:25:47;;;;;;;12.02;2.50;;;;;;;3.50;82.35;98319.06;4974940;28;20050;-89
2022/04/05 03:28:14;;;;;;;10.40;2.92;;;;;;;3.42;82.43;98310.69;4975072;28;20043;-88
2022/04/05 03:30:41;;;;;;;17.60;4.35;;;;;;;3.27;83.12;98313.53;4975207;28;20480;-89
2022/04/05 03:33:07;;;;;;;17.00;4.47;;;;;;;3.33;83.13;98321.09;4975350;28;20055;-89
2022/04/05 03:35:34;;;;;;;15.50;3.00;;;;;;;3.31;83.42;98322.84;4974714;28;20061;-88
2022/04/05 03:38:00;;;;;;;16.08;2.90;;;;;;;3.29;83.64;98314.34;4975286;28;20058;-89
2022/04/05 03:40:28;;;;;;;12.93;3.53;;;;;;;3.30;83.80;98310.91;4975403;28;20066;-89
2022/04/05 03:42:55;;;;;;;11.90;3.13;;;;;;;3.27;83.75;98319.50;4975942;28;20066;-89
2022/04/05 03:45:22;;;;;;;12.55;3.20;;;;;;;3.28;83.65;98312.66;4975614;28;20081;-89
2022/04/05 03:47:49;;;;;;;11.43;2.80;;;;;;;3.21;84.16;98313.63;4975499;28;20072;-89
2022/04/05 03:50:15;;;;;;;8.88;2.05;;;;;;;3.22;84.04;98323.84;4975514;28;20060;-89
2022/04/05 03:52:42;;;;;;;9.32;1.92;;;;;;;3.23;84.22;98314.44;4975581;28;20166;-89
2022/04/05 03:55:09;;;;;;;16.92;2.35;;;;;;;3.26;84.44;98316.97;4975359;28;20649;-89
2022/04/05 03:57:35;;;;;;;11.13;2.13;;;;;;;3.23;85.24;98320.41;4991259;28;20041;-88
2022/04/05 04:00:04;;;;;;;10.38;3.08;;;;;;;3.22;85.12;98323.84;4995747;28;20094;-88
2022/04/05 04:02:34;;;;;;;13.77;2.60;;;;;;;3.20;85.09;98317.91;4995915;28;20061;-87
2022/04/05 04:05:00;;;;;;;11.98;1.88;;;;;;;3.19;84.91;98320.50;4988433;28;20058;-86
2022/04/05 04:07:27;;;;;;;11.02;2.47;;;;;;;3.19;85.02;98317.94;4986721;28;20055;-86
2022/04/05 04:09:53;;;;;;;12.13;2.42;;;;;;;3.17;84.72;98323.94;4983130;28;20058;-87
2022/04/05 04:12:19;;;;;;;10.25;2.25;;;;;;;3.20;85.12;98315.34;4983916;28;20110;-87
2022/04/05 04:14:46;;;;;;;8.70;2.45;;;;;;;3.12;85.66;98323.16;4989359;28;20060;-86
2022/04/05 04:17:14;;;;;;;6.80;1.75;;;;;;;3.12;85.84;98327.41;4988876;28;20065;-84
2022/04/05 04:19:40;;;;;;;6.65;1.20;;;;;;;3.12;86.12;98323.16;4978193;28;20063;-89
2022/04/05 04:22:07;;;;;;;10.93;1.88;;;;;;;3.12;85.77;98329.97;4977184;28;20051;-87
2022/04/05 04:24:33;;;;;;;11.18;2.67;;;;;;;3.09;86.12;98332.56;4975967;28;20054;-89
2022/04/05 04:27:00;;;;;;;6.97;1.75;;;;;;;3.09;86.43;98341.09;4976266;28;20047;-88
2022/04/05 04:29:26;;;;;;;9.05;3.00;;;;;;;3.10;86.64;98339.38;4992330;28;20049;-85
2022/04/05 04:31:53;;;;;;;7.20;1.70;;;;;;;3.04;86.94;98334.38;4994879;28;20043;-84
2022/04/05 04:34:21;;;;;;;9.13;3.20;;;;;;;3.10;86.22;98347.91;4993281;28;20054;-85
2022/04/05 04:36:47;;;;;;;10.10;2.70;;;;;;;3.06;86.56;98348.84;4993639;28;20043;-86
2022/04/05 04:39:16;;;;;;;7.90;2.45;;;;;;;3.09;87.10;98353.91;4993467;28;20061;-86
2022/04/05 04:41:43;;;;;;;8.65;2.10;;;;;;;3.07;87.21;98355.63;4992965;28;20043;-86
2022/04/05 04:44:10;;;;;;;14.50;2.38;;;;;;;3.05;87.07;98359.94;4992088;28;20046;-85
2022/04/05 04:46:36;;;;;;;8.15;2.08;;;;;;;3.04;86.63;98365.09;4992872;28;20051;-84
2022/04/05 04:49:03;;;;;;;12.73;2.17;;;;;;;3.03;87.16;98366.78;4994426;28;20047;-85
2022/04/05 04:51:31;;;;;;;6.57;1.60;;;;;;;3.06;87.05;98378.69;4994758;28;20046;-85
2022/04/05 04:53:57;;;;;;;7.60;1.75;;;;;;;3.01;87.27;98385.59;4997512;28;20065;-87
2022/04/05 04:56:24;;;;;;;5.90;1.80;;;;;;;3.00;86.70;98389.88;4982949;28;20055;-90
2022/04/05 04:58:50;;;;;;;9.15;2.40;;;;;;;3.01;87.50;98394.13;4980442;28;20047;-88
2022/04/05 05:01:17;;;;;;;4.53;1.90;;;;;;;3.00;87.42;98395.00;4980049;28;20130;-88
2022/04/05 05:03:43;;;;;;;8.80;2.42;;;;;;;3.01;87.68;98396.69;4979839;28;20384;-88
2022/04/05 05:06:10;;;;;;;7.75;2.53;;;;;;;2.99;87.32;98393.31;4980455;28;20054;-88
2022/04/05 05:08:38;;;;;;;11.52;3.63;;;;;;;3.01;87.17;98390.72;4980089;28;20054;-89
2022/04/05 05:11:04;;;;;;;7.22;2.30;;;;;;;2.99;87.37;98387.34;4980332;28;20049;-89
2022/04/05 05:13:32;;;;;;;7.20;2.63;;;;;;;2.98;87.26;98380.53;4980268;28;20069;-90
2022/04/05 05:15:58;;;;;;;9.40;2.28;;;;;;;2.97;87.30;98389.09;4979680;28;20055;-87
2022/04/05 05:18:25;;;;;;;5.65;1.80;;;;;;;2.90;87.50;98387.50;4979349;28;20066;-89
2022/04/05 05:20:52;;;;;;;11.27;2.78;;;;;;;2.97;87.15;98400.16;4978688;28;20073;-89
2022/04/05 05:23:18;;;;;;;9.88;2.90;;;;;;;2.98;87.13;98411.25;4977824;28;20495;-88
2022/04/05 05:25:47;;;;;;;16.80;6.70;;;;;;;3.00;86.79;98410.34;4980377;28;20121;-89
2022/04/05 05:28:14;;;;;;;17.67;4.60;;;;;;;3.04;87.00;98414.56;4985680;28;20047;-88
2022/04/05 05:30:41;;;;;;;11.15;1.95;;;;;;;3.00;86.34;98420.59;4992829;28;20054;-87
2022/04/05 05:33:07;;;;;;;8.77;2.08;;;;;;;3.05;86.44;98431.59;4993309;28;20054;-87
2022/04/05 05:35:34;;;;;;;10.57;2.28;;;;;;;3.06;86.06;98430.75;4992577;28;20057;-86
2022/04/05 05:38:01;;;;;;;8.90;1.98;;;;;;;3.10;86.54;98442.63;4992704;28;20121;-87
2022/04/05 05:40:27;;;;;;;7.30;2.20;;;;;;;3.15;86.14;98443.44;4984593;28;20060;-87
2022/04/05 05:42:58;;;;;;;11.60;2.05;;;;;;;3.19;85.83;98448.50;4980928;28;20051;-88
2022/04/05 05:45:26;;;;;;;10.07;2.45;;;;;;;3.23;85.94;98452.69;4980527;28;20125;-86
2022/04/05 05:47:52;;;;;;;12.88;3.50;;;;;;;3.26;85.84;98457.78;4979922;28;20113;-87
2022/04/05 05:50:20;;;;;;;10.15;2.65;;;;;;;3.29;86.28;98462.84;4979944;28;20062;-89
2022/04/05 05:52:47;;;;;;;7.43;1.92;;;;;;;3.31;85.95;98466.22;4980807;28;20392;-90
2022/04/05 05:55:15;;;;;;;19.23;4.03;;;;;;;3.31;85.80;98479.88;4979771;28;20057;-88
2022/04/05 05:57:42;;;;;;;7.32;2.08;;;;;;;3.29;85.79;98488.47;4960521;29;20066;-89
2022/04/05 06:00:17;;;;;;;9.23;2.35;;;;;;;3.32;85.56;98490.97;4968971;28;20047;-89
2022/04/05 06:02:45;;;;;;;11.13;2.03;;;;;;;3.38;85.67;98501.13;4978021;28;20055;-89
2022/04/05 06:05:12;;;;;;;7.97;2.13;;;;;;;3.39;85.82;98507.94;4977740;28;20055;-89
2022/04/05 06:07:39;;;;;;;19.25;3.28;;;;;;;3.40;86.25;98507.06;4978166;28;20062;-89
2022/04/05 06:10:07;;;;;;;12.63;2.65;;;;;;;3.41;85.63;98513.88;4980858;28;20141;-89
2022/04/05 06:12:37;;;;;;;8.95;2.83;;;;;;;3.38;85.82;98516.50;4978684;28;20076;-89
2022/04/05 06:15:04;;;;;;;9.13;2.10;;;;;;;3.44;86.34;98518.97;4980259;28;20069;-91
2022/04/05 06:17:32;;;;;;;7.22;1.85;;;;;;;3.48;86.07;98520.59;4977870;28;20461;-90
2022/04/05 06:19:58;;;;;;;7.93;1.88;;;;;;;3.56;86.64;98534.13;4957921;28;20051;-89
2022/04/05 06:22:25;;;;;;;6.53;2.08;;;;;;;3.61;86.00;98534.91;4958821;29;20062;-89
2022/04/05 06:24:52;;;;;;;8.75;2.10;;;;;;;3.64;86.04;98537.44;4958841;29;20428;-89
2022/04/05 06:27:19;;;;;;;6.15;2.10;;;;;;;3.73;85.21;98541.59;4960869;28;20047;-90
2022/04/05 06:29:45;;;;;;;8.07;1.67;;;;;;;3.80;84.99;98538.06;4960555;29;20047;-89
2022/04/05 06:32:12;;;;;;;11.30;1.92;;;;;;;3.88;84.69;98549.03;4958607;28;20061;-89
2022/04/05 06:34:39;;;;;;;8.10;2.03;;;;;;;3.98;83.93;98544.59;4958024;28;20065;-87
2022/04/05 06:37:06;;;;;;;8.63;2.92;;;;;;;4.11;84.27;98559.72;4957606;29;20055;-89
2022/04/05 06:39:33;;;;;;;7.35;2.15;;;;;;;4.19;83.75;98575.00;4958389;28;20059;-89
2022/04/05 06:41:59;;;;;;;7.18;2.30;;;;;;;4.37;83.90;98571.28;4957809;28;20381;-90
2022/04/05 06:44:26;;;;;;;12.65;2.70;;;;;;;4.50;83.24;98577.03;4958895;28;20078;-89
2022/04/05 06:46:54;;;;;;;5.55;2.30;;;;;;;4.67;82.68;98585.25;4958692;29;20054;-88
2022/04/05 06:49:20;;;;;;;8.50;2.22;;;;;;;4.81;82.07;98585.88;4958439;29;20358;-89
2022/04/05 06:51:48;;;;;;;7.72;2.50;;;;;;;4.99;81.57;98587.22;4958705;29;20150;-88
2022/04/05 06:54:15;;;;;;;14.70;2.88;;;;;;;5.19;80.89;98594.50;4958809;29;20134;-89
2022/04/05 06:56:41;;;;;;;11.48;3.05;;;;;;;5.60;81.29;98603.91;4958231;29;20062;-87
2022/04/05 06:59:08;;;;;;;7.43;1.90;;;;;;;5.99;80.18;98609.91;4957780;29;20051;-90
2022/04/05 07:01:35;;;;;;;7.93;1.92;;;;;;;6.35;78.14;98604.78;4957790;29;20151;-90
2022/04/05 07:04:03;;;;;;;7.88;2.17;;;;;;;6.61;76.20;98615.25;4957694;29;20059;-91
2022/04/05 07:06:30;;;;;;;3.95;1.95;;;;;;;6.70;73.46;98622.72;4957698;29;20086;-89
2022/04/05 07:08:58;;;;;;;9.43;2.42;;;;;;;6.89;73.27;98621.38;4958620;29;20389;-89
2022/04/05 07:11:25;;;;;;;10.90;2.45;;;;;;;6.95;72.03;98634.09;4957786;29;20055;-89
2022/04/05 07:13:52;;;;;;;6.80;2.30;;;;;;;7.23;72.96;98635.88;4956602;29;20393;-90
2022/04/05 07:16:18;;;;;;;11.93;2.60;;;;;;;7.75;73.29;98631.81;4960790;28;20106;-90
2022/04/05 07:18:45;;;;;;;5.32;2.03;;;;;;;8.39;71.04;98642.75;4976285;28;20054;-87
2022/04/05 07:21:11;;;;;;;15.60;1.70;;;;;;;8.97;68.09;98645.94;4996467;28;20069;-89
2022/04/05 07:23:38;;;;;;;4.68;1.02;;;;;;;9.68;65.31;98639.91;4996907;28;20116;-88
2022/04/05 07:26:06;;;;;;;2.45;0.80;;;;;;;10.25;60.92;98641.16;4996922;28;20046;-88
2022/04/05 07:28:33;;;;;;;3.35;0.90;;;;;;;10.68;59.55;98645.44;4985508;28;20078;-88
2022/04/05 07:30:59;;;;;;;3.38;0.70;;;;;;;10.84;54.72;98653.41;4992768;28;20487;-89
2022/04/05 07:33:26;;;;;;;2.15;0.60;;;;;;;10.89;53.25;98664.44;4994354;28;20116;-91
2022/04/05 07:35:52;;;;;;;1.63;0.40;;;;;;;10.63;50.31;98668.97;4983830;28;20077;-89
2022/04/05 07:38:19;;;;;;;1.65;0.68;;;;;;;10.45;50.68;98680.09;4984810;28;20039;-90
2022/04/05 07:40:52;;;;;;;2.08;0.63;;;;;;;10.37;52.01;98679.53;4976969;28;20431;-88
2022/04/05 07:43:22;;;;;;;3.45;0.50;;;;;;;10.19;50.48;98685.41;4975591;28;20057;-89
2022/04/05 07:45:50;;;;;;;6.15;0.73;;;;;;;9.78;50.43;98696.41;4975888;28;20059;-89
2022/04/05 07:48:17;;;;;;;1.60;0.40;;;;;;;10.10;51.09;98697.81;4976262;28;20051;-89
2022/04/05 07:50:44;;;;;;;1.33;0.40;;;;;;;10.49;51.58;98702.38;4976021;28;20050;-89
2022/04/05 07:53:10;;;;;;;1.70;0.50;;;;;;;10.96;50.94;98705.59;4975412;28;20469;-90
2022/04/05 07:55:37;;;;;;;1.05;0.50;;;;;;;11.49;49.09;98712.00;4975596;28;20054;-88
2022/04/05 07:58:03;;;;;;;2.72;0.40;;;;;;;11.93;47.19;98729.03;4976487;28;20061;-93
2022/04/05 08:00:31;;;;;;;1.27;0.40;;;;;;;12.45;44.73;98721.41;4992919;28;20050;-96
2022/04/05 08:03:11;;;;;;;2.17;0.60;;;;;;;12.84;43.54;98721.25;5000689;28;20088;-96
2022/04/05 08:05:43;;;;;;;2.22;0.30;;;;;;;13.05;42.81;98729.78;5002421;28;20051;-95
2022/04/05 08:11:06;;;;;;;1.90;0.40;;;;;;;13.30;41.76;98733.75;4990089;23;20065;-63
2022/04/05 08:13:36;;;;;;;1.88;0.43;;;;;;;13.32;41.73;98740.56;4976302;28;20051;-59
2022/04/05 08:16:06;;;;;;;0.30;0.20;;;;;;;13.43;41.39;98760.84;4974900;28;20463;-58
2022/04/05 08:18:34;;;;;;;0.85;0.30;;;;;;;13.50;41.33;98764.78;4975118;28;20043;-62
2022/04/05 08:21:01;;;;;;;1.13;0.40;;;;;;;13.03;40.64;98755.00;4975434;28;20061;-61
2022/04/05 08:23:31;;;;;;;3.08;0.60;;;;;;;12.77;40.88;98763.22;4974981;28;20058;-64
2022/04/05 08:25:59;;;;;;;1.50;0.40;;;;;;;12.44;42.11;98761.31;4974871;28;20055;-64
2022/04/05 08:28:30;;;;;;;1.02;0.60;;;;;;;12.43;42.02;98771.78;4974220;28;20563;-65
2022/04/05 08:30:59;;;;;;;2.78;0.50;;;;;;;12.36;40.99;98786.81;4972662;28;20494;-56
2022/04/05 08:33:51;;;;;;;2.15;0.90;;;;;;;12.33;41.09;98779.16;4974383;28;20511;-57
2022/04/05 08:36:21;;;;;;;2.20;0.43;;;;;;;11.91;41.76;98785.38;4974134;28;20073;-58
2022/04/05 08:38:49;;;;;;;2.55;0.40;;;;;;;11.71;42.25;98775.00;4974939;28;20049;-63
2022/04/05 08:41:20;;;;;;;2.10;0.50;;;;;;;11.54;42.61;98782.69;4974652;28;20061;-58
2022/04/05 08:43:52;;;;;;;1.98;0.50;;;;;;;11.59;43.90;98771.19;4974500;28;20054;-58
2022/04/05 08:46:21;;;;;;;1.10;0.30;;;;;;;11.73;43.43;98787.91;4974904;28;20058;-58
2022/04/05 08:49:04;;;;;;;1.30;0.40;;;;;;;11.78;42.69;98794.63;4974227;28;20082;-59
2022/04/05 08:51:34;;;;;;;2.00;0.50;;;;;;;11.82;43.51;98790.97;4973799;28;20126;-55
2022/04/05 08:54:02;;;;;;;3.67;0.50;;;;;;;11.86;43.13;98795.13;4974052;28;20087;-58
2022/04/05 08:56:30;;;;;;;1.60;0.57;;;;;;;11.93;42.20;98804.31;4974239;28;20051;-57
2022/04/05 08:59:07;;;;;;;4.68;0.65;;;;;;;11.82;41.90;98819.53;4974541;28;20050;-59
2022/04/05 09:01:37;;;;;;;2.08;0.55;;;;;;;11.34;41.32;98825.03;4974127;28;20514;-59
2022/04/05 09:04:20;;;;;;;3.28;0.68;;;;;;;10.81;43.16;98828.03;4974481;28;20082;-59
2022/04/05 09:06:55;;;;;;;3.97;0.60;;;;;;;10.44;44.62;98844.16;4974354;28;20055;-57
2022/04/05 09:09:28;;;;;;;2.07;0.60;;;;;;;9.99;45.17;98842.31;4973934;28;20054;-62
2022/04/05 09:12:04;;;;;;;2.70;0.63;;;;;;;9.58;47.08;98855.84;4973427;28;20738;-62
2022/04/05 09:14:33;;;;;;;3.25;0.68;;;;;;;9.10;48.85;98864.31;4974098;28;20046;-59
2022/04/05 09:17:10;;;;;;;1.60;0.50;;;;;;;8.58;50.38;98865.91;4973953;28;20065;-61
2022/04/05 09:19:49;;;;;;;1.17;0.35;;;;;;;8.12;49.36;98869.78;4975001;28;20391;-59
2022/04/05 09:22:34;;;;;;;1.02;0.30;;;;;;;7.79;51.90;98873.28;4961503;28;20043;-62
2022/04/05 09:25:10;;;;;;;1.30;0.60;;;;;;;7.74;53.46;98891.44;4974448;28;20063;-58
2022/04/05 09:27:50;;;;;;;1.38;0.50;;;;;;;7.82;53.62;98888.69;4969103;28;20059;-60
2022/04/05 09:30:20;;;;;;;1.05;0.43;;;;;;;7.87;53.25;98892.84;4974116;28;20078;-55
2022/04/05 09:32:48;;;;;;;2.00;0.30;;;;;;;7.89;52.09;98901.38;4973524;28;20058;-57
2022/04/05 09:35:32;;;;;;;4.25;0.63;;;;;;;7.85;52.19;98904.09;4972999;28;20043;-60
2022/04/05 09:38:14;;;;;;;16.83;2.40;;;;;;;7.66;53.62;98919.16;4974564;28;20065;-59
2022/04/05 09:40:52;;;;;;;2.50;0.73;;;;;;;7.38;54.80;98929.31;4977098;28;20051;-61
2022/04/05 09:43:22;;;;;;;2.92;0.65;;;;;;;7.04;55.60;98928.41;4977345;28;20130;-58
2022/04/05 09:45:55;;;;;;;1.20;0.50;;;;;;;6.80;56.88;98932.38;4976899;28;20349;-53
2022/04/05 09:48:35;;;;;;;1.42;0.70;;;;;;;6.70;58.12;98923.97;4962211;28;20480;-57
2022/04/05 09:51:11;;;;;;;1.10;0.40;;;;;;;6.79;57.78;98916.09;4980354;28;20062;-54
2022/04/05 09:53:54;;;;;;;1.40;0.63;;;;;;;7.04;57.69;98928.41;4977158;28;20128;-60
2022/04/05 09:56:30;;;;;;;2.13;0.47;;;;;;;7.28;56.55;98920.09;4962196;28;20051;-59
2022/04/05 09:59:03;;;;;;;2.50;0.70;;;;;;;7.50;55.52;98939.34;4971041;28;20050;-60
2022/04/05 10:01:35;;;;;;;2.40;0.60;;;;;;;7.68;54.76;98932.03;4976573;28;20109;-61
2022/04/05 10:04:06;;;;;;;0.75;0.43;;;;;;;7.73;53.46;98935.34;4975936;28;20066;-58
2022/04/05 10:06:42;;;;;;;2.90;0.80;;;;;;;7.82;53.22;98938.56;4976330;28;20055;-63
2022/04/05 10:09:14;;;;;;;3.00;0.77;;;;;;;8.01;53.39;98931.16;4975766;28;20055;-65
2022/04/05 10:11:44;;;;;;;1.40;0.40;;;;;;;8.26;49.92;98938.25;4976879;28;20165;-64
2022/04/05 10:14:20;;;;;;;2.60;0.40;;;;;;;8.45;46.71;98936.91;4976112;28;20134;-64
2022/04/05 10:16:49;;;;;;;;;;;;;;;8.26;42.71;98964.06;4976646;28;20459;-65
2022/04/05 10:19:26;;;;;;;1.10;0.25;;;;;;;8.07;44.60;98956.81;4976513;28;19925;-65
2022/04/05 10:22:10;;;;;;;2.05;0.40;;;;;;;7.88;45.71;98960.75;4976615;28;20046;-61
2022/04/05 10:24:43;;;;;;;0.47;0.20;;;;;;;7.77;47.49;98981.63;4981921;28;20054;-63
2022/04/05 10:27:14;;;;;;;2.88;0.40;;;;;;;7.66;48.09;98986.22;4976518;28;20046;-60
2022/04/05 10:29:43;;;;;;;2.15;0.40;;;;;;;7.66;49.27;98982.78;4976467;28;20054;-63
2022/04/05 10:32:35;;;;;;;1.40;0.50;;;;;;;7.70;49.36;98987.00;4976565;28;20047;-62
2022/04/05 10:35:08;;;;;;;1.08;0.30;;;;;;;7.75;49.46;98979.97;4976242;28;20064;-63
2022/04/05 10:37:55;;;;;;;3.55;0.47;;;;;;;7.80;48.67;98985.88;4976449;28;20063;-64
2022/04/05 10:40:26;;;;;;;5.30;0.70;;;;;;;7.84;49.00;98985.78;4976505;28;20051;-63
2022/04/05 10:42:55;;;;;;;2.67;0.47;;;;;;;8.01;48.72;98977.63;4975523;28;20051;-63
2022/04/05 10:45:33;;;;;;;0.98;0.50;;;;;;;8.13;44.58;98981.59;4975779;28;20563;-63
2022/04/05 10:48:16;;;;;;;2.63;0.80;;;;;;;8.12;44.01;98998.81;4976109;28;20047;-61
2022/04/05 10:50:53;;;;;;;1.15;0.40;;;;;;;8.14;44.00;98991.88;4974902;28;20122;-62
2022/04/05 10:53:38;;;;;;;1.27;0.85;;;;;;;8.14;39.01;98989.31;4976023;28;20065;-62
2022/04/05 10:56:18;;;;;;;4.80;0.70;;;;;;;8.31;37.05;99001.75;4975854;28;20066;-63
2022/04/05 10:59:21;;;;;;;8.70;1.08;;;;;;;8.54;35.55;99006.34;4975985;28;20057;-65
2022/04/05 11:01:57;;;;;;;1.50;0.40;;;;;;;8.63;37.64;99015.59;4976050;28;20090;-64
2022/04/05 11:04:31;;;;;;;6.35;0.50;;;;;;;8.85;37.60;99003.78;4972080;28;20055;-64
2022/04/05 11:07:11;;;;;;;5.50;0.90;;;;;;;9.07;38.43;99019.50;4975795;28;20093;-59
2022/04/05 11:09:57;;;;;;;5.30;0.60;;;;;;;9.21;38.76;99022.50;4975137;28;20357;-59
2022/04/05 11:12:28;;;;;;;3.45;0.60;;;;;;;9.06;38.50;99018.66;4961330;28;20058;-61
2022/04/05 11:15:08;;;;;;;2.25;0.60;;;;;;;8.94;38.75;99024.19;4974893;28;20062;-61
2022/04/05 11:17:47;;;;;;;2.83;0.70;;;;;;;8.80;39.72;99021.97;4975808;28;20050;-60
2022/04/05 11:20:15;;;;;;;5.82;0.63;;;;;;;8.73;39.78;99038.53;4975317;28;20448;-61
2022/04/05 11:22:45;;;;;;;5.15;2.35;;;;;;;8.61;39.35;99040.59;4975344;28;20475;-61
2022/04/05 11:25:30;;;;;;;4.90;0.65;;;;;;;8.60;40.74;99047.50;4975617;28;20098;-61
2022/04/05 11:28:15;;;;;;;1.98;0.47;;;;;;;8.50;38.57;99043.50;4975421;28;20065;-61
2022/04/05 11:30:49;;;;;;;3.13;0.50;;;;;;;8.44;40.71;99051.41;4963100;28;20039;-59
2022/04/05 11:33:23;;;;;;;2.15;0.50;;;;;;;8.44;39.83;99053.97;4974860;28;20823;-60
2022/04/05 11:35:59;;;;;;;7.53;0.93;;;;;;;8.40;39.17;99070.44;4975149;28;20508;-62
2022/04/05 11:38:36;;;;;;;8.63;0.63;;;;;;;8.37;39.79;99063.63;4975336;28;20058;-62
2022/04/05 11:41:24;;;;;;;3.70;0.68;;;;;;;8.42;39.21;99055.75;4974952;28;20468;-63
2022/04/05 11:43:55;;;;;;;1.50;0.52;;;;;;;8.44;39.64;99084.97;4976824;28;20055;-62
2022/04/05 11:46:27;;;;;;;3.65;0.40;;;;;;;8.42;39.06;99076.41;4975330;28;20058;-62
2022/04/05 11:49:07;;;;;;;1.33;0.30;;;;;;;8.31;37.33;99078.38;4975031;28;20574;-62
2022/04/05 11:51:44;;;;;;;1.33;0.28;;;;;;;8.21;37.84;99101.84;4974942;28;20484;-62
2022/04/05 11:54:16;;;;;;;3.33;0.50;;;;;;;8.23;39.63;99102.63;4975320;28;20050;-62